createdAt,value
2017-02-27T00:00:56.614Z,989.91
2017-02-27T00:01:56.643Z,989.87
2017-02-27T00:02:56.668Z,989.91
2017-02-27T00:03:56.701Z,989.87
2017-02-27T00:04:56.725Z,989.87
2017-02-27T00:05:56.755Z,989.87
2017-02-27T00:06:56.783Z,989.81
2017-02-27T00:07:56.811Z,989.84
2017-02-27T00:08:56.840Z,989.82
2017-02-27T00:09:56.871Z,989.77
2017-02-27T00:10:56.894Z,989.8
2017-02-27T00:11:56.918Z,989.77
2017-02-27T00:12:56.951Z,989.78
2017-02-27T00:13:56.979Z,989.7
2017-02-27T00:14:57.005Z,989.72
2017-02-27T00:15:57.033Z,989.7
2017-02-27T00:16:57.062Z,989.73
2017-02-27T00:17:57.090Z,989.73
2017-02-27T00:18:57.119Z,989.73
2017-02-27T00:19:57.144Z,989.66
2017-02-27T00:20:57.172Z,989.75
2017-02-27T00:21:57.201Z,989.7
2017-02-27T00:22:57.231Z,989.69
2017-02-27T00:23:57.507Z,989.7
2017-02-27T00:24:57.284Z,989.72
2017-02-27T00:25:57.313Z,989.7
2017-02-27T00:26:57.342Z,989.7
2017-02-27T00:27:57.370Z,989.63
2017-02-27T00:28:57.500Z,989.61
2017-02-27T00:29:57.423Z,989.63
2017-02-27T00:30:57.452Z,989.58
2017-02-27T00:31:57.481Z,989.61
2017-02-27T00:32:57.510Z,989.54
2017-02-27T00:33:57.640Z,989.55
2017-02-27T00:34:57.564Z,989.55
2017-02-27T00:35:57.592Z,989.54
2017-02-27T00:36:57.621Z,989.49
2017-02-27T00:37:57.646Z,989.48
2017-02-27T00:38:57.927Z,989.56
2017-02-27T00:39:57.704Z,989.51
2017-02-27T00:40:57.732Z,989.58
2017-02-27T00:41:57.757Z,989.48
2017-02-27T00:42:57.787Z,989.52
2017-02-27T00:43:58.063Z,989.52
2017-02-27T00:44:57.841Z,989.51
2017-02-27T00:45:57.872Z,989.49
2017-02-27T00:46:57.896Z,989.46
2017-02-27T00:47:57.925Z,989.48
2017-02-27T00:48:58.203Z,989.46
2017-02-27T00:49:57.983Z,989.48
2017-02-27T00:50:58.012Z,989.53
2017-02-27T00:51:58.037Z,989.46
2017-02-27T00:52:58.064Z,989.54
2017-02-27T00:53:58.342Z,989.53
2017-02-27T00:54:58.122Z,989.52
2017-02-27T00:55:58.152Z,989.53
2017-02-27T00:56:58.176Z,989.51
2017-02-27T00:57:58.205Z,989.51
2017-02-27T00:58:58.485Z,989.52
2017-02-27T00:59:58.258Z,989.53
2017-02-27T01:00:58.287Z,989.5
2017-02-27T01:01:58.316Z,989.47
2017-02-27T01:02:58.340Z,989.46
2017-02-27T01:03:58.617Z,989.45
2017-02-27T01:04:58.396Z,989.41
2017-02-27T01:05:58.427Z,989.4
2017-02-27T01:06:58.456Z,989.45
2017-02-27T01:07:58.479Z,989.43
2017-02-27T01:08:58.762Z,989.4
2017-02-27T01:09:58.537Z,989.41
2017-02-27T01:10:58.562Z,989.35
2017-02-27T01:11:58.591Z,989.38
2017-02-27T01:12:58.620Z,989.4
2017-02-27T01:13:58.650Z,989.34
2017-02-27T01:14:58.676Z,989.36
2017-02-27T01:15:58.703Z,989.32
2017-02-27T01:16:58.731Z,989.32
2017-02-27T01:17:58.760Z,989.32
2017-02-27T01:18:58.788Z,989.33
2017-02-27T01:19:58.817Z,989.31
2017-02-27T01:20:58.838Z,989.25
2017-02-27T01:21:58.872Z,989.27
2017-02-27T01:22:58.900Z,989.24
2017-02-27T01:23:58.924Z,989.22
2017-02-27T01:24:58.953Z,989.26
2017-02-27T01:25:58.982Z,989.22
2017-02-27T01:26:59.011Z,989.24
2017-02-27T01:27:59.040Z,989.21
2017-02-27T01:28:59.064Z,989.22
2017-02-27T01:29:59.093Z,989.19
2017-02-27T01:30:59.122Z,989.19
2017-02-27T01:31:59.151Z,989.22
2017-02-27T01:32:59.172Z,989.22
2017-02-27T01:33:59.204Z,989.23
2017-02-27T01:41:26.821Z,989.1
2017-02-27T01:52:44.098Z,988.92
2017-02-27T01:53:44.123Z,988.88
2017-02-27T01:54:44.156Z,988.88
2017-02-27T01:55:44.181Z,988.89
2017-02-27T01:56:44.461Z,988.86
2017-02-27T01:57:44.238Z,988.84
2017-02-27T01:58:44.263Z,988.83
2017-02-27T01:59:44.292Z,988.79
2017-02-27T02:00:44.321Z,988.8
2017-02-27T02:01:44.601Z,988.8
2017-02-27T02:02:44.373Z,988.73
2017-02-27T02:03:44.403Z,988.74
2017-02-27T02:04:44.431Z,988.69
2017-02-27T02:05:44.460Z,988.71
2017-02-27T02:06:44.731Z,988.73
2017-02-27T02:07:44.514Z,988.69
2017-02-27T02:08:44.539Z,988.66
2017-02-27T02:09:44.572Z,988.67
2017-02-27T02:10:44.596Z,988.64
2017-02-27T02:11:44.629Z,988.63
2017-02-27T02:12:44.652Z,988.61
2017-02-27T02:13:44.682Z,988.62
2017-02-27T02:14:44.707Z,988.61
2017-02-27T02:15:44.741Z,988.58
2017-02-27T02:16:44.764Z,988.58
2017-02-27T02:17:44.788Z,988.59
2017-02-27T02:18:44.817Z,988.56
2017-02-27T02:19:44.847Z,988.55
2017-02-27T02:20:44.872Z,988.56
2017-02-27T02:21:44.900Z,988.53
2017-02-27T02:22:44.928Z,988.54
2017-02-27T02:23:44.955Z,988.49
2017-02-27T02:24:44.982Z,988.51
2017-02-27T02:25:45.011Z,988.43
2017-02-27T02:26:45.040Z,988.54
2017-02-27T02:27:45.069Z,988.52
2017-02-27T02:28:45.094Z,988.47
2017-02-27T02:29:45.122Z,988.5
2017-02-27T02:30:45.152Z,988.48
2017-02-27T02:31:45.176Z,988.49
2017-02-27T02:32:45.205Z,988.42
2017-02-27T02:33:45.234Z,988.45
2017-02-27T02:34:45.262Z,988.45
2017-02-27T02:35:45.287Z,988.41
2017-02-27T02:36:45.311Z,988.42
2017-02-27T02:37:45.344Z,988.39
2017-02-27T02:38:45.370Z,988.38
2017-02-27T02:39:45.398Z,988.39
2017-02-27T02:40:45.428Z,988.36
2017-02-27T02:41:45.452Z,988.33
2017-02-27T02:42:45.481Z,988.28
2017-02-27T02:43:45.509Z,988.28
2017-02-27T02:44:45.534Z,988.31
2017-02-27T02:45:45.560Z,988.27
2017-02-27T02:46:45.592Z,988.29
2017-02-27T02:47:45.617Z,988.31
2017-02-27T02:48:45.647Z,988.26
2017-02-27T02:49:45.675Z,988.27
2017-02-27T02:50:45.703Z,988.27
2017-02-27T02:51:45.728Z,988.23
2017-02-27T02:52:45.756Z,988.21
2017-02-27T02:53:45.786Z,988.16
2017-02-27T02:54:45.809Z,988.18
2017-02-27T02:55:45.840Z,988.14
2017-02-27T02:56:45.869Z,988.17
2017-02-27T02:57:45.893Z,988.16
2017-02-27T02:58:45.924Z,988.15
2017-02-27T02:59:45.949Z,988.08
2017-02-27T03:00:45.975Z,988.05
2017-02-27T03:01:45.999Z,988.01
2017-02-27T03:02:46.033Z,988.01
2017-02-27T03:03:46.061Z,988.03
2017-02-27T03:04:46.086Z,987.96
2017-02-27T03:05:46.115Z,987.97
2017-02-27T03:06:46.143Z,987.98
2017-02-27T03:07:46.168Z,987.98
2017-02-27T03:08:46.197Z,987.94
2017-02-27T03:09:46.225Z,987.96
2017-02-27T03:10:46.250Z,987.92
2017-02-27T03:11:46.278Z,987.95
2017-02-27T03:12:46.307Z,987.87
2017-02-27T03:13:46.332Z,987.89
2017-02-27T03:14:46.361Z,987.86
2017-02-27T03:15:46.389Z,987.86
2017-02-27T03:16:46.423Z,987.82
2017-02-27T03:17:46.440Z,987.79
2017-02-27T03:18:46.473Z,987.82
2017-02-27T03:19:46.497Z,987.77
2017-02-27T03:20:46.525Z,987.75
2017-02-27T03:21:46.553Z,987.71
2017-02-27T03:22:46.581Z,987.7
2017-02-27T03:23:46.607Z,987.67
2017-02-27T03:24:46.636Z,987.65
2017-02-27T03:25:46.657Z,987.66
2017-02-27T03:26:46.694Z,987.68
2017-02-27T03:27:46.970Z,987.64
2017-02-27T03:28:46.743Z,987.68
2017-02-27T03:29:46.772Z,987.59
2017-02-27T03:30:46.801Z,987.59
2017-02-27T03:31:46.825Z,987.57
2017-02-27T03:32:47.105Z,987.58
2017-02-27T03:33:46.883Z,987.63
2017-02-27T03:34:46.908Z,987.6
2017-02-27T03:35:46.936Z,987.57
2017-02-27T03:36:46.967Z,987.59
2017-02-27T03:37:47.241Z,987.58
2017-02-27T03:38:47.018Z,987.57
2017-02-27T03:39:47.048Z,987.55
2017-02-27T03:40:47.067Z,987.47
2017-02-27T03:41:47.097Z,987.47
2017-02-27T03:42:47.381Z,987.42
2017-02-27T03:43:47.155Z,987.38
2017-02-27T03:44:47.178Z,987.4
2017-02-27T03:45:47.215Z,987.4
2017-02-27T03:46:47.240Z,987.34
2017-02-27T03:47:47.517Z,987.26
2017-02-27T03:48:47.294Z,987.29
2017-02-27T03:49:47.314Z,987.26
2017-02-27T03:50:47.349Z,987.23
2017-02-27T03:51:47.376Z,987.22
2017-02-27T03:52:47.653Z,987.27
2017-02-27T03:53:47.429Z,987.24
2017-02-27T03:54:47.454Z,987.23
2017-02-27T03:55:47.483Z,987.24
2017-02-27T03:56:47.512Z,987.18
2017-02-27T03:57:47.789Z,987.22
2017-02-27T03:58:47.565Z,987.24
2017-02-27T03:59:47.593Z,987.18
2017-02-27T04:00:47.624Z,987.2
2017-02-27T04:01:47.648Z,987.16
2017-02-27T04:02:47.676Z,987.23
2017-02-27T04:03:47.701Z,987.19
2017-02-27T04:04:47.726Z,987.19
2017-02-27T04:05:47.758Z,987.21
2017-02-27T04:06:47.783Z,987.21
2017-02-27T04:07:47.812Z,987.17
2017-02-27T04:08:47.841Z,987.21
2017-02-27T04:09:47.870Z,987.2
2017-02-27T04:10:47.895Z,987.14
2017-02-27T04:11:47.924Z,987.1
2017-02-27T04:12:47.948Z,987.11
2017-02-27T04:13:47.975Z,987.12
2017-02-27T04:14:48.001Z,987.1
2017-02-27T04:15:48.030Z,987.06
2017-02-27T04:16:48.060Z,987.07
2017-02-27T04:17:48.083Z,987.05
2017-02-27T04:18:48.113Z,987.06
2017-02-27T04:19:48.141Z,987.08
2017-02-27T04:20:48.170Z,987.08
2017-02-27T04:21:48.195Z,986.97
2017-02-27T04:22:48.223Z,986.95
2017-02-27T04:23:48.246Z,986.96
2017-02-27T04:24:48.277Z,986.96
2017-02-27T04:25:48.303Z,986.92
2017-02-27T04:26:48.331Z,986.91
2017-02-27T04:27:48.361Z,986.95
2017-02-27T04:28:48.384Z,986.98
2017-02-27T04:29:48.413Z,986.95
2017-02-27T04:30:48.442Z,986.99
2017-02-27T04:31:48.470Z,986.93
2017-02-27T04:32:48.495Z,986.97
2017-02-27T04:33:48.523Z,986.95
2017-02-27T04:34:48.548Z,986.94
2017-02-27T04:35:48.578Z,986.91
2017-02-27T04:36:48.606Z,986.9
2017-02-27T04:37:48.626Z,986.86
2017-02-27T04:38:48.655Z,986.88
2017-02-27T04:39:48.686Z,986.84
2017-02-27T04:40:48.713Z,986.85
2017-02-27T04:41:48.742Z,986.82
2017-02-27T04:42:48.770Z,986.85
2017-02-27T04:43:48.795Z,986.83
2017-02-27T04:44:48.824Z,986.81
2017-02-27T04:45:48.842Z,986.82
2017-02-27T04:46:48.877Z,986.8
2017-02-27T04:47:48.906Z,986.81
2017-02-27T04:48:48.931Z,986.79
2017-02-27T04:49:48.960Z,986.76
2017-02-27T04:50:48.981Z,986.75
2017-02-27T04:51:49.014Z,986.76
2017-02-27T04:52:49.040Z,986.76
2017-02-27T04:53:49.067Z,986.73
2017-02-27T04:54:49.096Z,986.72
2017-02-27T04:55:49.120Z,986.71
2017-02-27T04:56:49.149Z,986.73
2017-02-27T04:57:49.177Z,986.75
2017-02-27T04:58:49.202Z,986.68
2017-02-27T04:59:49.231Z,986.64
2017-02-27T05:00:49.256Z,986.64
2017-02-27T05:01:49.285Z,986.58
2017-02-27T05:02:49.313Z,986.61
2017-02-27T05:03:49.342Z,986.66
2017-02-27T05:04:49.364Z,986.64
2017-02-27T05:05:49.396Z,986.62
2017-02-27T05:06:49.420Z,986.61
2017-02-27T05:07:49.449Z,986.59
2017-02-27T05:08:49.477Z,986.57
2017-02-27T05:09:49.502Z,986.6
2017-02-27T05:10:49.526Z,986.6
2017-02-27T05:11:49.561Z,986.53
2017-02-27T05:12:49.584Z,986.55
2017-02-27T05:13:49.613Z,986.51
2017-02-27T05:14:49.639Z,986.47
2017-02-27T05:15:49.667Z,986.42
2017-02-27T05:16:49.695Z,986.43
2017-02-27T05:17:49.720Z,986.5
2017-02-27T05:18:49.996Z,986.48
2017-02-27T05:19:49.777Z,986.46
2017-02-27T05:20:49.802Z,986.4
2017-02-27T05:21:49.832Z,986.46
2017-02-27T05:22:49.862Z,986.5
2017-02-27T05:23:50.136Z,986.48
2017-02-27T05:24:49.912Z,986.44
2017-02-27T05:25:49.943Z,986.44
2017-02-27T05:26:49.966Z,986.45
2017-02-27T05:27:49.994Z,986.4
2017-02-27T05:28:50.272Z,986.46
2017-02-27T05:29:50.048Z,986.46
2017-02-27T05:30:50.078Z,986.44
2017-02-27T05:31:50.102Z,986.47
2017-02-27T05:32:50.131Z,986.46
2017-02-27T05:33:50.407Z,986.45
2017-02-27T05:34:50.184Z,986.43
2017-02-27T05:35:50.211Z,986.39
2017-02-27T05:36:50.246Z,986.43
2017-02-27T05:37:50.267Z,986.43
2017-02-27T05:38:50.546Z,986.47
2017-02-27T05:39:50.319Z,986.41
2017-02-27T05:40:50.348Z,986.37
2017-02-27T05:41:50.382Z,986.37
2017-02-27T05:42:50.402Z,986.37
2017-02-27T05:43:50.682Z,986.37
2017-02-27T05:44:50.459Z,986.34
2017-02-27T05:45:50.484Z,986.36
2017-02-27T05:46:50.512Z,986.31
2017-02-27T05:47:50.538Z,986.33
2017-02-27T05:48:50.818Z,986.31
2017-02-27T05:49:50.591Z,986.28
2017-02-27T05:50:50.620Z,986.27
2017-02-27T05:51:50.644Z,986.26
2017-02-27T05:52:50.674Z,986.27
2017-02-27T05:53:50.702Z,986.27
2017-02-27T05:54:50.730Z,986.27
2017-02-27T05:55:50.760Z,986.24
2017-02-27T05:56:50.785Z,986.27
2017-02-27T05:57:50.813Z,986.28
2017-02-27T05:58:50.841Z,986.22
2017-02-27T05:59:50.866Z,986.28
2017-02-27T06:00:50.896Z,986.22
2017-02-27T06:01:50.922Z,986.23
2017-02-27T06:02:50.949Z,986.21
2017-02-27T06:03:50.970Z,986.21
2017-02-27T06:04:51.003Z,986.23
2017-02-27T06:05:51.032Z,986.2
2017-02-27T06:06:51.060Z,986.2
2017-02-27T06:07:51.085Z,986.25
2017-02-27T06:08:51.114Z,986.21
2017-02-27T06:09:51.139Z,986.19
2017-02-27T06:10:51.167Z,986.17
2017-02-27T06:11:51.201Z,986.19
2017-02-27T06:12:51.217Z,986.13
2017-02-27T06:13:51.250Z,986.16
2017-02-27T06:14:51.279Z,986.17
2017-02-27T06:15:51.304Z,986.13
2017-02-27T06:16:51.333Z,986.14
2017-02-27T06:17:51.361Z,986.14
2017-02-27T06:18:51.386Z,986.12
2017-02-27T06:19:51.415Z,986.13
2017-02-27T06:20:51.444Z,986.1
2017-02-27T06:21:51.464Z,986.08
2017-02-27T06:22:51.497Z,986.13
2017-02-27T06:23:51.522Z,986.11
2017-02-27T06:24:51.551Z,986.08
2017-02-27T06:25:51.576Z,986.07
2017-02-27T06:26:51.604Z,986.08
2017-02-27T06:27:51.633Z,986.02
2017-02-27T06:28:51.662Z,986.03
2017-02-27T06:29:51.687Z,986.05
2017-02-27T06:30:51.716Z,986.01
2017-02-27T06:31:51.746Z,986.06
2017-02-27T06:32:51.768Z,986.05
2017-02-27T06:33:51.797Z,986.07
2017-02-27T06:34:51.826Z,986.09
2017-02-27T06:35:51.851Z,986
2017-02-27T06:36:51.880Z,986.07
2017-02-27T06:37:51.909Z,986.02
2017-02-27T06:38:51.933Z,986.01
2017-02-27T06:39:51.962Z,985.97
2017-02-27T06:40:51.986Z,985.94
2017-02-27T06:41:52.016Z,985.91
2017-02-27T06:42:52.045Z,985.9
2017-02-27T06:43:52.073Z,985.91
2017-02-27T06:44:52.098Z,985.89
2017-02-27T06:45:52.127Z,985.83
2017-02-27T06:46:52.156Z,985.83
2017-02-27T06:47:52.181Z,985.83
2017-02-27T06:48:52.212Z,985.85
2017-02-27T06:49:52.238Z,985.87
2017-02-27T06:50:52.263Z,985.74
2017-02-27T06:51:52.292Z,985.79
2017-02-27T06:52:52.313Z,985.8
2017-02-27T06:53:52.346Z,985.79
2017-02-27T06:54:52.374Z,985.78
2017-02-27T06:55:52.403Z,985.72
2017-02-27T06:56:52.428Z,985.73
2017-02-27T06:57:52.457Z,985.71
2017-02-27T06:58:52.486Z,985.68
2017-02-27T06:59:52.764Z,985.7
2017-02-27T07:00:52.539Z,985.7
2017-02-27T07:01:52.568Z,985.72
2017-02-27T07:02:52.588Z,985.69
2017-02-27T07:03:52.622Z,985.71
2017-02-27T07:04:52.649Z,985.67
2017-02-27T07:05:52.675Z,985.68
2017-02-27T07:06:52.703Z,985.69
2017-02-27T07:07:52.732Z,985.72
2017-02-27T07:08:52.763Z,985.63
2017-02-27T07:09:52.786Z,985.64
2017-02-27T07:10:52.815Z,985.62
2017-02-27T07:11:52.844Z,985.67
2017-02-27T07:12:52.869Z,985.61
2017-02-27T07:13:52.897Z,985.66
2017-02-27T07:14:52.926Z,985.62
2017-02-27T07:15:52.951Z,985.56
2017-02-27T07:16:52.982Z,985.57
2017-02-27T07:17:53.005Z,985.59
2017-02-27T07:18:53.034Z,985.59
2017-02-27T07:19:53.062Z,985.62
2017-02-27T07:20:53.090Z,985.62
2017-02-27T07:21:53.115Z,985.57
2017-02-27T07:22:53.144Z,985.64
2017-02-27T07:23:53.173Z,985.64
2017-02-27T07:24:53.198Z,985.61
2017-02-27T07:25:53.228Z,985.6
2017-02-27T07:26:53.259Z,985.62
2017-02-27T07:27:53.280Z,985.63
2017-02-27T07:28:53.309Z,985.62
2017-02-27T07:29:53.338Z,985.66
2017-02-27T07:30:53.366Z,985.63
2017-02-27T07:31:53.392Z,985.62
2017-02-27T07:32:53.420Z,985.6
2017-02-27T07:33:53.448Z,985.6
2017-02-27T07:34:53.478Z,985.59
2017-02-27T07:35:53.502Z,985.62
2017-02-27T07:36:53.532Z,985.6
2017-02-27T07:37:53.556Z,985.57
2017-02-27T07:38:53.580Z,985.57
2017-02-27T07:39:53.614Z,985.57
2017-02-27T07:40:53.645Z,985.57
2017-02-27T07:41:53.667Z,985.54
2017-02-27T07:42:53.692Z,985.54
2017-02-27T07:43:53.725Z,985.51
2017-02-27T07:44:53.749Z,985.54
2017-02-27T07:45:53.778Z,985.56
2017-02-27T07:46:53.804Z,985.53
2017-02-27T07:47:53.836Z,985.53
2017-02-27T07:48:53.860Z,985.53
2017-02-27T07:49:53.890Z,985.54
2017-02-27T07:50:53.919Z,985.56
2017-02-27T07:51:53.941Z,985.52
2017-02-27T07:52:53.972Z,985.56
2017-02-27T07:53:53.998Z,985.57
2017-02-27T07:54:54.030Z,985.52
2017-02-27T07:55:54.054Z,985.55
2017-02-27T07:56:54.094Z,985.51
2017-02-27T07:57:54.112Z,985.5
2017-02-27T07:58:54.135Z,985.53
2017-02-27T07:59:54.164Z,985.49
2017-02-27T08:00:54.194Z,985.52
2017-02-27T08:01:54.223Z,985.46
2017-02-27T08:02:54.243Z,985.46
2017-02-27T08:03:54.276Z,985.48
2017-02-27T08:04:54.305Z,985.4
2017-02-27T08:05:54.330Z,985.43
2017-02-27T08:06:54.360Z,985.38
2017-02-27T08:07:54.387Z,985.41
2017-02-27T08:08:54.416Z,985.44
2017-02-27T08:09:54.441Z,985.35
2017-02-27T08:10:54.498Z,985.33
2017-02-27T08:11:54.492Z,985.37
2017-02-27T08:12:54.523Z,985.32
2017-02-27T08:13:54.552Z,985.32
2017-02-27T08:14:54.580Z,985.35
2017-02-27T08:15:54.609Z,985.27
2017-02-27T08:16:54.634Z,985.29
2017-02-27T08:17:54.662Z,985.27
2017-02-27T08:18:54.687Z,985.29
2017-02-27T08:19:54.720Z,985.24
2017-02-27T08:20:54.744Z,985.22
2017-02-27T08:21:54.774Z,985.19
2017-02-27T08:22:54.803Z,985.21
2017-02-27T08:23:54.830Z,985.2
2017-02-27T08:24:54.856Z,985.2
2017-02-27T08:25:54.885Z,985.2
2017-02-27T08:26:54.914Z,985.2
2017-02-27T08:27:54.938Z,985.25
2017-02-27T08:28:54.967Z,985.24
2017-02-27T08:29:54.996Z,985.16
2017-02-27T08:30:55.125Z,985.16
2017-02-27T08:31:55.079Z,985.07
2017-02-27T08:32:55.078Z,985.08
2017-02-27T08:33:55.107Z,985.02
2017-02-27T08:34:55.136Z,984.98
2017-02-27T08:35:55.413Z,985.05
2017-02-27T08:36:55.194Z,985.1
2017-02-27T08:37:55.213Z,985.09
2017-02-27T08:38:55.246Z,985.11
2017-02-27T08:39:55.275Z,985.07
2017-02-27T08:40:55.551Z,985.08
2017-02-27T08:41:55.329Z,985.06
2017-02-27T08:42:55.353Z,985.05
2017-02-27T08:43:55.383Z,984.95
2017-02-27T08:44:55.411Z,984.95
2017-02-27T08:45:55.692Z,984.9
2017-02-27T08:46:55.469Z,984.87
2017-02-27T08:47:55.497Z,984.85
2017-02-27T08:48:55.522Z,984.82
2017-02-27T08:49:55.551Z,984.79
2017-02-27T08:50:55.831Z,984.8
2017-02-27T08:51:55.609Z,984.79
2017-02-27T08:52:55.638Z,984.81
2017-02-27T08:53:55.665Z,984.76
2017-02-27T08:54:55.691Z,984.82
2017-02-27T08:55:55.720Z,984.74
2017-02-27T08:56:55.748Z,984.7
2017-02-27T08:57:55.777Z,984.66
2017-02-27T08:58:55.806Z,984.64
2017-02-27T08:59:55.839Z,984.62
2017-02-27T09:00:55.864Z,984.69
2017-02-27T09:01:55.892Z,984.64
2017-02-27T09:02:55.916Z,984.64
2017-02-27T09:03:55.945Z,984.64
2017-02-27T09:04:55.975Z,984.67
2017-02-27T09:05:56.003Z,984.65
2017-02-27T09:06:56.033Z,984.64
2017-02-27T09:07:56.059Z,984.64
2017-02-27T09:08:56.090Z,984.6
2017-02-27T09:09:56.119Z,984.63
2017-02-27T09:10:56.144Z,984.64
2017-02-27T09:11:56.175Z,984.61
2017-02-27T09:12:56.204Z,984.64
2017-02-27T09:13:56.229Z,984.61
2017-02-27T09:14:56.260Z,984.6
2017-02-27T09:15:56.285Z,984.67
2017-02-27T09:16:56.315Z,984.65
2017-02-27T09:17:56.344Z,984.64
2017-02-27T09:18:56.373Z,984.62
2017-02-27T09:19:56.402Z,984.63
2017-02-27T09:20:56.431Z,984.54
2017-02-27T09:21:56.459Z,984.5
2017-02-27T09:22:56.488Z,984.48
2017-02-27T09:23:56.516Z,984.52
2017-02-27T09:24:56.541Z,984.54
2017-02-27T09:25:56.569Z,984.59
2017-02-27T09:26:56.599Z,984.62
2017-02-27T09:27:56.627Z,984.62
2017-02-27T09:28:56.656Z,984.58
2017-02-27T09:29:56.684Z,984.57
2017-02-27T09:30:56.713Z,984.56
2017-02-27T09:31:56.739Z,984.53
2017-02-27T09:32:56.768Z,984.55
2017-02-27T09:33:56.797Z,984.54
2017-02-27T09:34:56.826Z,984.46
2017-02-27T09:35:56.854Z,984.45
2017-02-27T09:36:56.884Z,984.45
2017-02-27T09:37:56.907Z,984.48
2017-02-27T09:38:56.936Z,984.46
2017-02-27T09:39:56.965Z,984.42
2017-02-27T09:40:56.993Z,984.4
2017-02-27T09:41:57.022Z,984.43
2017-02-27T09:42:57.051Z,984.42
2017-02-27T09:43:57.079Z,984.44
2017-02-27T09:44:57.110Z,984.45
2017-02-27T09:45:57.136Z,984.46
2017-02-27T09:46:57.162Z,984.46
2017-02-27T09:47:57.192Z,984.41
2017-02-27T09:48:57.220Z,984.36
2017-02-27T09:49:57.248Z,984.33
2017-02-27T09:50:57.273Z,984.32
2017-02-27T09:51:57.306Z,984.25
2017-02-27T09:52:57.335Z,984.08
2017-02-27T09:53:57.359Z,984.15
2017-02-27T09:54:57.388Z,984.13
2017-02-27T09:55:57.413Z,984.12
2017-02-27T09:56:57.446Z,984.18
2017-02-27T09:57:57.475Z,984.23
2017-02-27T09:58:57.503Z,984.16
2017-02-27T09:59:57.528Z,984.11
2017-02-27T10:00:57.557Z,984.12
2017-02-27T10:01:57.585Z,984.05
2017-02-27T10:02:57.614Z,984.08
2017-02-27T10:03:57.643Z,984.08
2017-02-27T10:04:57.675Z,983.98
2017-02-27T10:05:57.701Z,983.98
2017-02-27T10:06:57.730Z,983.94
2017-02-27T10:07:57.758Z,984
2017-02-27T10:08:57.783Z,983.96
2017-02-27T10:09:57.811Z,983.94
2017-02-27T10:10:57.840Z,983.98
2017-02-27T10:11:57.868Z,983.91
2017-02-27T10:12:57.897Z,983.82
2017-02-27T10:13:57.926Z,983.77
2017-02-27T10:14:57.951Z,983.73
2017-02-27T10:15:57.980Z,983.73
2017-02-27T10:16:58.009Z,983.74
2017-02-27T10:17:58.038Z,983.76
2017-02-27T10:18:58.066Z,983.75
2017-02-27T10:19:58.091Z,983.63
2017-02-27T10:20:58.124Z,983.76
2017-02-27T10:21:58.153Z,983.69
2017-02-27T10:22:58.182Z,983.64
2017-02-27T10:23:58.207Z,983.56
2017-02-27T10:24:58.236Z,983.54
2017-02-27T10:25:58.264Z,983.53
2017-02-27T10:26:58.293Z,983.59
2017-02-27T10:27:58.338Z,983.58
2017-02-27T10:28:58.350Z,983.51
2017-02-27T10:29:58.383Z,983.47
2017-02-27T10:30:58.408Z,983.53
2017-02-27T10:31:58.434Z,983.42
2017-02-27T10:32:58.468Z,983.47
2017-02-27T10:33:58.494Z,983.35
2017-02-27T10:34:58.518Z,983.47
2017-02-27T10:35:58.548Z,983.46
2017-02-27T10:36:58.577Z,983.42
2017-02-27T10:37:58.606Z,983.56
2017-02-27T10:38:58.632Z,983.43
2017-02-27T10:39:58.662Z,983.39
2017-02-27T10:40:58.691Z,983.36
2017-02-27T10:41:58.720Z,983.23
2017-02-27T10:42:58.748Z,983.26
2017-02-27T10:43:58.777Z,983.21
2017-02-27T10:44:58.806Z,983.21
2017-02-27T10:45:58.831Z,983.19
2017-02-27T10:46:58.859Z,983.11
2017-02-27T10:47:58.886Z,983.24
2017-02-27T10:48:58.914Z,983.2
2017-02-27T10:49:58.946Z,983.06
2017-02-27T10:50:58.971Z,983.02
2017-02-27T10:51:59.003Z,983.12
2017-02-27T10:52:59.033Z,983.12
2017-02-27T10:53:59.056Z,983.04
2017-02-27T10:54:59.086Z,982.97
2017-02-27T10:55:59.119Z,982.93
2017-02-27T10:56:59.143Z,982.81
2017-02-27T10:57:59.172Z,982.91
2017-02-27T10:58:59.201Z,982.73
2017-02-27T10:59:59.229Z,982.67
2017-02-27T11:00:59.259Z,982.57
2017-02-27T11:01:59.287Z,982.73
2017-02-27T11:02:59.316Z,982.8
2017-02-27T11:03:59.344Z,982.7
2017-02-27T11:04:59.369Z,982.72
2017-02-27T11:05:59.402Z,982.71
2017-02-27T11:06:59.431Z,982.76
2017-02-27T11:07:59.460Z,982.75
2017-02-27T11:08:59.489Z,982.7
2017-02-27T11:09:59.517Z,982.74
2017-02-27T11:10:59.546Z,982.58
2017-02-27T11:11:59.575Z,982.53
2017-02-27T11:12:59.604Z,982.51
2017-02-27T11:13:59.632Z,982.63
2017-02-27T11:14:59.661Z,982.67
2017-02-27T11:15:59.691Z,982.7
2017-02-27T11:16:59.716Z,982.64
2017-02-27T11:17:59.747Z,982.52
2017-02-27T11:18:59.775Z,982.64
2017-02-27T11:19:59.800Z,982.68
2017-02-27T11:20:59.834Z,982.59
2017-02-27T11:21:59.858Z,982.48
2017-02-27T11:22:59.887Z,982.39
2017-02-27T11:23:59.917Z,982.42
2017-02-27T11:24:59.948Z,982.43
2017-02-27T11:25:59.974Z,982.49
2017-02-27T11:27:00.002Z,982.58
2017-02-27T11:28:00.043Z,982.38
2017-02-27T11:29:00.060Z,982.34
2017-02-27T11:30:00.088Z,982.26
2017-02-27T11:31:00.117Z,982.29
2017-02-27T11:32:00.146Z,982.23
2017-02-27T11:33:00.175Z,982.08
2017-02-27T11:34:00.204Z,982.12
2017-02-27T11:35:00.232Z,982.2
2017-02-27T11:36:00.261Z,982.2
2017-02-27T11:37:00.286Z,982.11
2017-02-27T11:38:00.318Z,982.11
2017-02-27T11:39:00.347Z,982.12
2017-02-27T11:40:00.377Z,982.03
2017-02-27T11:41:00.405Z,982.1
2017-02-27T11:42:00.434Z,982.12
2017-02-27T11:43:00.458Z,982.04
2017-02-27T11:44:00.491Z,981.97
2017-02-27T11:45:00.520Z,981.95
2017-02-27T11:46:00.549Z,981.87
2017-02-27T11:47:00.578Z,982.01
2017-02-27T11:48:00.602Z,981.82
2017-02-27T11:49:00.631Z,981.94
2017-02-27T11:50:00.660Z,981.92
2017-02-27T11:51:00.689Z,981.87
2017-02-27T11:52:00.718Z,981.87
2017-02-27T11:53:00.745Z,981.9
2017-02-27T11:54:00.774Z,981.78
2017-02-27T11:55:00.803Z,981.77
2017-02-27T11:56:00.832Z,981.71
2017-02-27T11:57:00.862Z,981.66
2017-02-27T11:58:00.889Z,981.65
2017-02-27T11:59:00.915Z,981.64
2017-02-27T12:00:00.947Z,981.55
2017-02-27T12:01:00.968Z,981.59
2017-02-27T12:02:01.101Z,981.54
2017-02-27T12:03:01.022Z,981.51
2017-02-27T12:04:01.060Z,981.49
2017-02-27T12:05:01.088Z,981.47
2017-02-27T12:06:01.107Z,981.48
2017-02-27T12:07:01.392Z,981.4
2017-02-27T12:08:01.170Z,981.34
2017-02-27T12:09:01.198Z,981.32
2017-02-27T12:10:01.227Z,981.22
2017-02-27T12:11:01.257Z,981.18
2017-02-27T12:12:01.536Z,981.22
2017-02-27T12:13:01.322Z,981.21
2017-02-27T12:14:01.338Z,981.08
2017-02-27T12:15:01.367Z,981.11
2017-02-27T12:16:01.395Z,981.06
2017-02-27T12:17:01.674Z,981.04
2017-02-27T12:18:01.454Z,981.05
2017-02-27T12:19:01.482Z,981.06
2017-02-27T12:20:01.518Z,981.05
2017-02-27T12:21:01.535Z,980.96
2017-02-27T12:22:01.815Z,980.94
2017-02-27T12:23:01.593Z,980.95
2017-02-27T12:24:01.620Z,980.81
2017-02-27T12:25:01.651Z,980.78
2017-02-27T12:26:01.675Z,980.91
2017-02-27T12:27:01.956Z,980.93
2017-02-27T12:28:01.733Z,980.81
2017-02-27T12:29:01.760Z,980.7
2017-02-27T12:30:01.790Z,980.71
2017-02-27T12:31:01.819Z,980.9
2017-02-27T12:32:01.844Z,980.82
2017-02-27T12:33:01.872Z,980.7
2017-02-27T12:34:01.899Z,980.82
2017-02-27T12:35:01.930Z,980.7
2017-02-27T12:36:01.959Z,980.64
2017-02-27T12:37:01.983Z,980.52
2017-02-27T12:38:02.012Z,980.53
2017-02-27T12:39:02.041Z,980.51
2017-02-27T12:40:02.070Z,980.64
2017-02-27T12:41:02.098Z,980.59
2017-02-27T12:42:02.127Z,980.62
2017-02-27T12:43:02.151Z,980.52
2017-02-27T12:44:02.180Z,980.66
2017-02-27T12:45:02.205Z,980.73
2017-02-27T12:46:02.237Z,980.79
2017-02-27T12:47:02.266Z,980.54
2017-02-27T12:48:02.295Z,980.62